sensor_id;sensor_type;location;lat;lon;timestamp;P1;durP1;ratioP1;P2;durP2;ratioP2
58621;SDS011;44389;51.578;5.456;2023-06-26T00:01:29;41.10;;;25.65;;
58621;SDS011;44389;51.578;5.456;2023-06-26T00:03:56;39.80;;;26.73;;
58621;SDS011;44389;51.578;5.456;2023-06-26T00:06:22;32.95;;;22.17;;
58621;SDS011;44389;51.578;5.456;2023-06-26T00:08:51;34.63;;;21.95;;
58621;SDS011;44389;51.578;5.456;2023-06-26T00:11:17;33.50;;;22.13;;
58621;SDS011;44389;51.578;5.456;2023-06-26T00:13:43;31.63;;;21.13;;
58621;SDS011;44389;51.578;5.456;2023-06-26T00:16:08;33.25;;;22.10;;
58621;SDS011;44389;51.578;5.456;2023-06-26T00:18:33;31.67;;;20.70;;
58621;SDS011;44389;51.578;5.456;2023-06-26T00:20:59;32.53;;;20.77;;
58621;SDS011;44389;51.578;5.456;2023-06-26T00:23:24;32.38;;;21.33;;
58621;SDS011;44389;51.578;5.456;2023-06-26T00:25:50;34.42;;;21.75;;
58621;SDS011;44389;51.578;5.456;2023-06-26T00:28:15;30.42;;;20.75;;
58621;SDS011;44389;51.578;5.456;2023-06-26T00:30:41;34.42;;;21.85;;
58621;SDS011;44389;51.578;5.456;2023-06-26T00:33:06;34.33;;;21.75;;
58621;SDS011;44389;51.578;5.456;2023-06-26T00:35:31;31.83;;;20.50;;
58621;SDS011;44389;51.578;5.456;2023-06-26T00:37:57;35.28;;;21.92;;
58621;SDS011;44389;51.578;5.456;2023-06-26T00:40:22;36.05;;;22.50;;
58621;SDS011;44389;51.578;5.456;2023-06-26T00:42:47;36.42;;;23.05;;
58621;SDS011;44389;51.578;5.456;2023-06-26T00:45:13;34.90;;;22.85;;
58621;SDS011;44389;51.578;5.456;2023-06-26T00:47:38;37.30;;;23.02;;
58621;SDS011;44389;51.578;5.456;2023-06-26T00:50:04;37.47;;;23.17;;
58621;SDS011;44389;51.578;5.456;2023-06-26T00:52:30;36.75;;;23.13;;
58621;SDS011;44389;51.578;5.456;2023-06-26T00:54:56;38.25;;;23.33;;
58621;SDS011;44389;51.578;5.456;2023-06-26T00:57:22;37.58;;;23.05;;
58621;SDS011;44389;51.578;5.456;2023-06-26T00:59:48;36.92;;;22.08;;
58621;SDS011;44389;51.578;5.456;2023-06-26T01:02:14;39.53;;;23.92;;
58621;SDS011;44389;51.578;5.456;2023-06-26T01:04:42;35.90;;;21.73;;
58621;SDS011;44389;51.578;5.456;2023-06-26T01:07:12;39.40;;;23.75;;
58621;SDS011;44389;51.578;5.456;2023-06-26T01:09:38;36.45;;;23.77;;
58621;SDS011;44389;51.578;5.456;2023-06-26T01:12:04;43.47;;;24.00;;
58621;SDS011;44389;51.578;5.456;2023-06-26T01:14:30;38.95;;;24.17;;
58621;SDS011;44389;51.578;5.456;2023-06-26T01:16:57;38.95;;;24.27;;
58621;SDS011;44389;51.578;5.456;2023-06-26T01:21:58;40.50;;;24.27;;
58621;SDS011;44389;51.578;5.456;2023-06-26T01:24:39;47.08;;;25.75;;
58621;SDS011;44389;51.578;5.456;2023-06-26T01:27:09;37.15;;;23.95;;
58621;SDS011;44389;51.578;5.456;2023-06-26T01:29:36;38.97;;;23.77;;
58621;SDS011;44389;51.578;5.456;2023-06-26T01:32:02;39.28;;;22.83;;
58621;SDS011;44389;51.578;5.456;2023-06-26T01:34:28;38.08;;;22.83;;
58621;SDS011;44389;51.578;5.456;2023-06-26T01:36:54;39.85;;;23.35;;
58621;SDS011;44389;51.578;5.456;2023-06-26T01:39:20;36.40;;;21.67;;
58621;SDS011;44389;51.578;5.456;2023-06-26T01:41:45;33.22;;;20.17;;
58621;SDS011;44389;51.578;5.456;2023-06-26T01:44:21;30.02;;;18.25;;
58621;SDS011;44389;51.578;5.456;2023-06-26T01:52:26;32.67;;;16.83;;
58621;SDS011;44389;51.578;5.456;2023-06-26T01:55:02;27.83;;;14.95;;
58621;SDS011;44389;51.578;5.456;2023-06-26T01:57:28;25.75;;;15.20;;
58621;SDS011;44389;51.578;5.456;2023-06-26T02:02:23;29.83;;;15.18;;
58621;SDS011;44389;51.578;5.456;2023-06-26T02:04:49;34.97;;;15.07;;
58621;SDS011;44389;51.578;5.456;2023-06-26T02:07:14;29.45;;;15.35;;
58621;SDS011;44389;51.578;5.456;2023-06-26T02:09:40;30.25;;;15.18;;
58621;SDS011;44389;51.578;5.456;2023-06-26T02:12:05;30.90;;;15.38;;
58621;SDS011;44389;51.578;5.456;2023-06-26T02:14:31;31.00;;;16.05;;
58621;SDS011;44389;51.578;5.456;2023-06-26T02:16:56;32.00;;;15.00;;
58621;SDS011;44389;51.578;5.456;2023-06-26T02:19:21;28.10;;;13.43;;
58621;SDS011;44389;51.578;5.456;2023-06-26T02:21:48;35.08;;;15.00;;
58621;SDS011;44389;51.578;5.456;2023-06-26T02:24:14;27.85;;;13.55;;
58621;SDS011;44389;51.578;5.456;2023-06-26T02:26:40;33.30;;;12.95;;
58621;SDS011;44389;51.578;5.456;2023-06-26T02:29:05;31.85;;;13.07;;
58621;SDS011;44389;51.578;5.456;2023-06-26T02:31:30;32.60;;;14.20;;
58621;SDS011;44389;51.578;5.456;2023-06-26T02:33:56;36.08;;;14.68;;
58621;SDS011;44389;51.578;5.456;2023-06-26T02:36:21;23.92;;;12.52;;
58621;SDS011;44389;51.578;5.456;2023-06-26T02:38:46;27.85;;;14.18;;
58621;SDS011;44389;51.578;5.456;2023-06-26T02:41:12;24.73;;;13.02;;
58621;SDS011;44389;51.578;5.456;2023-06-26T02:43:37;34.38;;;13.85;;
58621;SDS011;44389;51.578;5.456;2023-06-26T02:46:03;35.15;;;13.50;;
58621;SDS011;44389;51.578;5.456;2023-06-26T02:48:28;33.33;;;13.23;;
58621;SDS011;44389;51.578;5.456;2023-06-26T02:50:53;27.42;;;12.82;;
58621;SDS011;44389;51.578;5.456;2023-06-26T02:53:18;35.97;;;14.52;;
58621;SDS011;44389;51.578;5.456;2023-06-26T02:55:44;26.88;;;13.88;;
58621;SDS011;44389;51.578;5.456;2023-06-26T02:58:09;29.58;;;13.75;;
58621;SDS011;44389;51.578;5.456;2023-06-26T03:00:34;29.60;;;14.05;;
58621;SDS011;44389;51.578;5.456;2023-06-26T03:03:00;31.75;;;14.38;;
58621;SDS011;44389;51.578;5.456;2023-06-26T03:05:25;28.08;;;14.70;;
58621;SDS011;44389;51.578;5.456;2023-06-26T03:07:51;31.40;;;15.40;;
58621;SDS011;44389;51.578;5.456;2023-06-26T03:10:16;33.35;;;14.55;;
58621;SDS011;44389;51.578;5.456;2023-06-26T03:12:41;30.25;;;15.05;;
58621;SDS011;44389;51.578;5.456;2023-06-26T03:15:08;31.55;;;14.65;;
58621;SDS011;44389;51.578;5.456;2023-06-26T03:17:33;30.25;;;12.75;;
58621;SDS011;44389;51.578;5.456;2023-06-26T03:19:59;27.95;;;13.77;;
58621;SDS011;44389;51.578;5.456;2023-06-26T03:22:24;34.53;;;13.55;;
58621;SDS011;44389;51.578;5.456;2023-06-26T03:24:49;37.72;;;13.85;;
58621;SDS011;44389;51.578;5.456;2023-06-26T03:27:15;26.60;;;13.00;;
58621;SDS011;44389;51.578;5.456;2023-06-26T03:29:40;34.10;;;13.15;;
58621;SDS011;44389;51.578;5.456;2023-06-26T03:32:05;33.40;;;12.73;;
58621;SDS011;44389;51.578;5.456;2023-06-26T03:34:31;26.00;;;13.38;;
58621;SDS011;44389;51.578;5.456;2023-06-26T03:36:56;32.70;;;13.02;;
58621;SDS011;44389;51.578;5.456;2023-06-26T03:39:22;29.70;;;12.60;;
58621;SDS011;44389;51.578;5.456;2023-06-26T03:41:47;33.65;;;13.52;;
58621;SDS011;44389;51.578;5.456;2023-06-26T03:44:13;31.80;;;12.80;;
58621;SDS011;44389;51.578;5.456;2023-06-26T03:46:38;30.63;;;12.73;;
58621;SDS011;44389;51.578;5.456;2023-06-26T03:49:03;35.00;;;13.23;;
58621;SDS011;44389;51.578;5.456;2023-06-26T03:51:29;30.48;;;12.55;;
58621;SDS011;44389;51.578;5.456;2023-06-26T03:53:54;30.20;;;13.00;;
58621;SDS011;44389;51.578;5.456;2023-06-26T03:56:19;33.15;;;12.93;;
58621;SDS011;44389;51.578;5.456;2023-06-26T03:58:45;28.15;;;12.73;;
58621;SDS011;44389;51.578;5.456;2023-06-26T04:01:10;33.47;;;13.50;;
58621;SDS011;44389;51.578;5.456;2023-06-26T04:03:35;40.67;;;13.82;;
58621;SDS011;44389;51.578;5.456;2023-06-26T04:06:00;38.83;;;14.27;;
58621;SDS011;44389;51.578;5.456;2023-06-26T04:08:26;34.05;;;13.13;;
58621;SDS011;44389;51.578;5.456;2023-06-26T04:10:51;38.70;;;14.20;;
58621;SDS011;44389;51.578;5.456;2023-06-26T04:13:17;40.40;;;13.45;;
58621;SDS011;44389;51.578;5.456;2023-06-26T04:15:42;35.58;;;13.75;;
58621;SDS011;44389;51.578;5.456;2023-06-26T04:18:08;36.45;;;14.43;;
58621;SDS011;44389;51.578;5.456;2023-06-26T04:20:37;46.63;;;14.32;;
58621;SDS011;44389;51.578;5.456;2023-06-26T04:23:04;38.72;;;14.10;;
58621;SDS011;44389;51.578;5.456;2023-06-26T04:25:29;40.00;;;14.95;;
58621;SDS011;44389;51.578;5.456;2023-06-26T04:27:55;44.72;;;14.18;;
58621;SDS011;44389;51.578;5.456;2023-06-26T04:30:20;38.42;;;13.65;;
58621;SDS011;44389;51.578;5.456;2023-06-26T04:32:45;46.58;;;15.77;;
58621;SDS011;44389;51.578;5.456;2023-06-26T04:35:10;36.25;;;13.68;;
58621;SDS011;44389;51.578;5.456;2023-06-26T04:37:36;42.70;;;14.10;;
58621;SDS011;44389;51.578;5.456;2023-06-26T04:40:01;43.28;;;14.60;;
58621;SDS011;44389;51.578;5.456;2023-06-26T04:42:29;42.13;;;12.98;;
58621;SDS011;44389;51.578;5.456;2023-06-26T04:44:54;40.47;;;13.57;;
58621;SDS011;44389;51.578;5.456;2023-06-26T04:47:19;46.55;;;14.82;;
58621;SDS011;44389;51.578;5.456;2023-06-26T04:49:45;43.20;;;13.48;;
58621;SDS011;44389;51.578;5.456;2023-06-26T04:52:11;47.50;;;13.43;;
58621;SDS011;44389;51.578;5.456;2023-06-26T04:54:39;39.05;;;13.40;;
58621;SDS011;44389;51.578;5.456;2023-06-26T04:57:05;33.95;;;11.63;;
58621;SDS011;44389;51.578;5.456;2023-06-26T04:59:30;35.22;;;13.60;;
58621;SDS011;44389;51.578;5.456;2023-06-26T05:01:56;31.88;;;11.38;;
58621;SDS011;44389;51.578;5.456;2023-06-26T05:04:21;36.63;;;11.25;;
58621;SDS011;44389;51.578;5.456;2023-06-26T05:06:47;30.48;;;11.43;;
58621;SDS011;44389;51.578;5.456;2023-06-26T05:09:13;36.90;;;11.40;;
58621;SDS011;44389;51.578;5.456;2023-06-26T05:11:38;41.42;;;12.75;;
58621;SDS011;44389;51.578;5.456;2023-06-26T05:14:04;35.05;;;11.52;;
58621;SDS011;44389;51.578;5.456;2023-06-26T05:16:32;36.05;;;12.20;;
58621;SDS011;44389;51.578;5.456;2023-06-26T05:18:57;38.15;;;11.95;;
58621;SDS011;44389;51.578;5.456;2023-06-26T05:21:23;31.85;;;11.32;;
58621;SDS011;44389;51.578;5.456;2023-06-26T05:23:48;36.17;;;10.95;;
58621;SDS011;44389;51.578;5.456;2023-06-26T05:26:17;24.73;;;10.90;;
58621;SDS011;44389;51.578;5.456;2023-06-26T05:28:42;37.60;;;12.13;;
58621;SDS011;44389;51.578;5.456;2023-06-26T05:31:13;26.90;;;10.80;;
58621;SDS011;44389;51.578;5.456;2023-06-26T05:33:38;33.60;;;10.15;;
58621;SDS011;44389;51.578;5.456;2023-06-26T05:36:07;30.95;;;9.80;;
58621;SDS011;44389;51.578;5.456;2023-06-26T05:38:34;29.60;;;10.57;;
58621;SDS011;44389;51.578;5.456;2023-06-26T05:41:00;25.92;;;10.40;;
58621;SDS011;44389;51.578;5.456;2023-06-26T05:43:25;23.83;;;8.77;;
58621;SDS011;44389;51.578;5.456;2023-06-26T05:45:51;27.98;;;8.63;;
58621;SDS011;44389;51.578;5.456;2023-06-26T05:48:16;22.30;;;7.97;;
58621;SDS011;44389;51.578;5.456;2023-06-26T05:50:41;27.83;;;8.40;;
58621;SDS011;44389;51.578;5.456;2023-06-26T05:53:08;34.03;;;9.15;;
58621;SDS011;44389;51.578;5.456;2023-06-26T05:55:34;31.67;;;8.25;;
58621;SDS011;44389;51.578;5.456;2023-06-26T05:58:01;22.65;;;7.28;;
58621;SDS011;44389;51.578;5.456;2023-06-26T06:00:27;22.73;;;7.10;;
58621;SDS011;44389;51.578;5.456;2023-06-26T06:02:53;22.70;;;7.25;;
58621;SDS011;44389;51.578;5.456;2023-06-26T06:05:19;24.42;;;7.63;;
58621;SDS011;44389;51.578;5.456;2023-06-26T06:07:45;24.80;;;7.13;;
58621;SDS011;44389;51.578;5.456;2023-06-26T06:10:10;24.65;;;6.72;;
58621;SDS011;44389;51.578;5.456;2023-06-26T06:12:35;22.05;;;6.90;;
58621;SDS011;44389;51.578;5.456;2023-06-26T06:15:01;18.30;;;6.20;;
58621;SDS011;44389;51.578;5.456;2023-06-26T06:17:26;19.02;;;5.80;;
58621;SDS011;44389;51.578;5.456;2023-06-26T06:19:51;19.15;;;5.50;;
58621;SDS011;44389;51.578;5.456;2023-06-26T06:22:17;17.23;;;5.63;;
58621;SDS011;44389;51.578;5.456;2023-06-26T06:24:42;18.25;;;5.60;;
58621;SDS011;44389;51.578;5.456;2023-06-26T06:27:08;19.00;;;5.70;;
58621;SDS011;44389;51.578;5.456;2023-06-26T06:29:34;15.80;;;5.25;;
58621;SDS011;44389;51.578;5.456;2023-06-26T06:31:59;24.02;;;6.78;;
58621;SDS011;44389;51.578;5.456;2023-06-26T06:34:25;20.55;;;5.78;;
58621;SDS011;44389;51.578;5.456;2023-06-26T06:36:50;17.17;;;5.30;;
58621;SDS011;44389;51.578;5.456;2023-06-26T06:39:15;20.52;;;5.70;;
58621;SDS011;44389;51.578;5.456;2023-06-26T06:41:41;17.15;;;5.95;;
58621;SDS011;44389;51.578;5.456;2023-06-26T06:44:07;18.63;;;5.10;;
58621;SDS011;44389;51.578;5.456;2023-06-26T06:46:32;12.82;;;4.95;;
58621;SDS011;44389;51.578;5.456;2023-06-26T06:48:57;20.42;;;4.97;;
58621;SDS011;44389;51.578;5.456;2023-06-26T06:51:23;17.67;;;5.53;;
58621;SDS011;44389;51.578;5.456;2023-06-26T06:53:48;16.63;;;5.25;;
58621;SDS011;44389;51.578;5.456;2023-06-26T06:56:13;18.25;;;5.35;;
58621;SDS011;44389;51.578;5.456;2023-06-26T06:58:39;21.38;;;5.10;;
58621;SDS011;44389;51.578;5.456;2023-06-26T07:01:07;17.30;;;5.43;;
58621;SDS011;44389;51.578;5.456;2023-06-26T07:03:33;17.13;;;5.10;;
58621;SDS011;44389;51.578;5.456;2023-06-26T07:05:58;14.40;;;4.85;;
58621;SDS011;44389;51.578;5.456;2023-06-26T07:08:23;16.98;;;4.65;;
58621;SDS011;44389;51.578;5.456;2023-06-26T07:10:48;14.68;;;4.82;;
58621;SDS011;44389;51.578;5.456;2023-06-26T07:13:14;14.80;;;4.70;;
58621;SDS011;44389;51.578;5.456;2023-06-26T07:15:39;15.18;;;4.88;;
58621;SDS011;44389;51.578;5.456;2023-06-26T07:18:04;18.83;;;4.97;;
58621;SDS011;44389;51.578;5.456;2023-06-26T07:20:30;14.35;;;4.53;;
58621;SDS011;44389;51.578;5.456;2023-06-26T07:22:55;12.75;;;4.78;;
58621;SDS011;44389;51.578;5.456;2023-06-26T07:25:20;14.23;;;5.03;;
58621;SDS011;44389;51.578;5.456;2023-06-26T07:27:46;14.45;;;4.80;;
58621;SDS011;44389;51.578;5.456;2023-06-26T07:30:11;16.63;;;5.82;;
58621;SDS011;44389;51.578;5.456;2023-06-26T07:32:37;15.95;;;6.53;;
58621;SDS011;44389;51.578;5.456;2023-06-26T07:35:03;17.33;;;5.72;;
58621;SDS011;44389;51.578;5.456;2023-06-26T07:37:29;12.63;;;5.90;;
58621;SDS011;44389;51.578;5.456;2023-06-26T07:39:54;15.50;;;6.38;;
58621;SDS011;44389;51.578;5.456;2023-06-26T07:42:19;15.60;;;6.13;;
58621;SDS011;44389;51.578;5.456;2023-06-26T07:44:45;13.85;;;6.25;;
58621;SDS011;44389;51.578;5.456;2023-06-26T07:47:10;16.48;;;6.82;;
58621;SDS011;44389;51.578;5.456;2023-06-26T07:49:36;16.05;;;6.78;;
58621;SDS011;44389;51.578;5.456;2023-06-26T07:52:01;14.85;;;7.15;;
58621;SDS011;44389;51.578;5.456;2023-06-26T07:54:27;13.27;;;6.40;;
58621;SDS011;44389;51.578;5.456;2023-06-26T07:56:56;15.05;;;6.38;;
58621;SDS011;44389;51.578;5.456;2023-06-26T07:59:23;14.95;;;5.80;;
58621;SDS011;44389;51.578;5.456;2023-06-26T08:01:52;17.88;;;5.95;;
58621;SDS011;44389;51.578;5.456;2023-06-26T08:04:19;10.50;;;5.22;;
58621;SDS011;44389;51.578;5.456;2023-06-26T08:06:45;12.20;;;5.70;;
58621;SDS011;44389;51.578;5.456;2023-06-26T08:09:14;14.60;;;4.88;;
58621;SDS011;44389;51.578;5.456;2023-06-26T08:11:39;9.88;;;3.80;;
58621;SDS011;44389;51.578;5.456;2023-06-26T08:14:05;10.65;;;3.47;;
58621;SDS011;44389;51.578;5.456;2023-06-26T08:16:30;7.60;;;3.17;;
58621;SDS011;44389;51.578;5.456;2023-06-26T08:18:55;9.02;;;3.17;;
58621;SDS011;44389;51.578;5.456;2023-06-26T08:21:21;9.35;;;2.83;;
58621;SDS011;44389;51.578;5.456;2023-06-26T08:23:46;11.90;;;2.80;;
58621;SDS011;44389;51.578;5.456;2023-06-26T08:26:11;7.72;;;2.53;;
58621;SDS011;44389;51.578;5.456;2023-06-26T08:28:36;9.85;;;2.40;;
58621;SDS011;44389;51.578;5.456;2023-06-26T08:31:02;11.02;;;3.22;;
58621;SDS011;44389;51.578;5.456;2023-06-26T08:33:27;10.35;;;2.55;;
58621;SDS011;44389;51.578;5.456;2023-06-26T08:35:53;13.23;;;2.90;;
58621;SDS011;44389;51.578;5.456;2023-06-26T08:38:18;10.50;;;2.50;;
58621;SDS011;44389;51.578;5.456;2023-06-26T08:40:46;7.00;;;2.75;;
58621;SDS011;44389;51.578;5.456;2023-06-26T08:43:11;7.47;;;2.30;;
58621;SDS011;44389;51.578;5.456;2023-06-26T08:45:37;9.70;;;2.70;;
58621;SDS011;44389;51.578;5.456;2023-06-26T08:48:02;7.78;;;2.33;;
58621;SDS011;44389;51.578;5.456;2023-06-26T08:50:33;11.93;;;2.20;;
58621;SDS011;44389;51.578;5.456;2023-06-26T08:55:29;6.18;;;2.10;;
58621;SDS011;44389;51.578;5.456;2023-06-26T09:00:22;14.55;;;2.28;;
58621;SDS011;44389;51.578;5.456;2023-06-26T09:02:48;9.73;;;2.30;;
58621;SDS011;44389;51.578;5.456;2023-06-26T09:05:13;11.10;;;2.30;;
58621;SDS011;44389;51.578;5.456;2023-06-26T09:07:38;8.02;;;1.88;;
58621;SDS011;44389;51.578;5.456;2023-06-26T09:10:04;8.18;;;2.30;;
58621;SDS011;44389;51.578;5.456;2023-06-26T09:12:30;6.57;;;2.03;;
58621;SDS011;44389;51.578;5.456;2023-06-26T09:14:56;7.38;;;2.42;;
58621;SDS011;44389;51.578;5.456;2023-06-26T09:17:32;6.90;;;1.80;;
58621;SDS011;44389;51.578;5.456;2023-06-26T09:20:03;9.48;;;2.90;;
58621;SDS011;44389;51.578;5.456;2023-06-26T09:22:29;9.27;;;2.35;;
58621;SDS011;44389;51.578;5.456;2023-06-26T09:24:58;9.40;;;1.80;;
58621;SDS011;44389;51.578;5.456;2023-06-26T09:27:23;9.63;;;1.85;;
58621;SDS011;44389;51.578;5.456;2023-06-26T09:29:49;7.57;;;1.98;;
58621;SDS011;44389;51.578;5.456;2023-06-26T09:32:15;8.07;;;2.50;;
58621;SDS011;44389;51.578;5.456;2023-06-26T09:34:41;5.18;;;1.70;;
58621;SDS011;44389;51.578;5.456;2023-06-26T09:37:11;8.48;;;1.80;;
58621;SDS011;44389;51.578;5.456;2023-06-26T09:39:37;7.72;;;2.00;;
58621;SDS011;44389;51.578;5.456;2023-06-26T09:42:02;12.30;;;2.05;;
58621;SDS011;44389;51.578;5.456;2023-06-26T09:44:30;6.25;;;2.03;;
58621;SDS011;44389;51.578;5.456;2023-06-26T09:46:56;11.98;;;1.95;;
58621;SDS011;44389;51.578;5.456;2023-06-26T09:49:23;11.40;;;2.25;;
58621;SDS011;44389;51.578;5.456;2023-06-26T09:51:49;11.70;;;2.25;;
58621;SDS011;44389;51.578;5.456;2023-06-26T09:54:16;12.95;;;2.22;;
58621;SDS011;44389;51.578;5.456;2023-06-26T09:56:42;9.55;;;2.13;;
58621;SDS011;44389;51.578;5.456;2023-06-26T09:59:08;9.43;;;1.67;;
58621;SDS011;44389;51.578;5.456;2023-06-26T10:01:40;10.07;;;1.80;;
58621;SDS011;44389;51.578;5.456;2023-06-26T10:04:06;6.10;;;1.90;;
58621;SDS011;44389;51.578;5.456;2023-06-26T10:06:45;6.63;;;2.10;;
58621;SDS011;44389;51.578;5.456;2023-06-26T10:09:16;10.43;;;1.88;;
58621;SDS011;44389;51.578;5.456;2023-06-26T10:14:21;7.80;;;1.80;;
58621;SDS011;44389;51.578;5.456;2023-06-26T10:16:49;8.02;;;1.95;;
58621;SDS011;44389;51.578;5.456;2023-06-26T10:19:16;7.03;;;1.85;;
58621;SDS011;44389;51.578;5.456;2023-06-26T10:21:49;6.10;;;1.55;;
58621;SDS011;44389;51.578;5.456;2023-06-26T10:24:17;7.45;;;1.95;;
58621;SDS011;44389;51.578;5.456;2023-06-26T10:26:44;6.00;;;1.60;;
58621;SDS011;44389;51.578;5.456;2023-06-26T10:29:14;8.27;;;1.95;;
58621;SDS011;44389;51.578;5.456;2023-06-26T10:31:43;7.60;;;1.75;;
58621;SDS011;44389;51.578;5.456;2023-06-26T10:34:11;9.25;;;2.10;;
58621;SDS011;44389;51.578;5.456;2023-06-26T10:36:37;10.75;;;2.00;;
58621;SDS011;44389;51.578;5.456;2023-06-26T10:39:04;5.90;;;1.80;;
58621;SDS011;44389;51.578;5.456;2023-06-26T10:41:37;6.18;;;1.77;;
58621;SDS011;44389;51.578;5.456;2023-06-26T10:44:07;7.75;;;1.85;;
58621;SDS011;44389;51.578;5.456;2023-06-26T10:49:18;10.05;;;2.13;;
58621;SDS011;44389;51.578;5.456;2023-06-26T10:51:50;7.88;;;2.08;;
58621;SDS011;44389;51.578;5.456;2023-06-26T10:54:19;7.97;;;2.10;;
58621;SDS011;44389;51.578;5.456;2023-06-26T10:56:46;9.57;;;1.77;;
58621;SDS011;44389;51.578;5.456;2023-06-26T10:59:14;7.70;;;1.75;;
58621;SDS011;44389;51.578;5.456;2023-06-26T11:01:45;10.25;;;1.75;;
58621;SDS011;44389;51.578;5.456;2023-06-26T11:04:14;11.52;;;2.10;;
58621;SDS011;44389;51.578;5.456;2023-06-26T11:06:41;6.40;;;2.03;;
58621;SDS011;44389;51.578;5.456;2023-06-26T11:09:11;6.03;;;1.60;;
58621;SDS011;44389;51.578;5.456;2023-06-26T11:14:20;5.10;;;1.80;;
58621;SDS011;44389;51.578;5.456;2023-06-26T11:16:46;9.50;;;2.30;;
58621;SDS011;44389;51.578;5.456;2023-06-26T11:19:12;10.82;;;2.10;;
58621;SDS011;44389;51.578;5.456;2023-06-26T11:21:38;9.50;;;1.95;;
58621;SDS011;44389;51.578;5.456;2023-06-26T11:24:07;7.22;;;2.08;;
58621;SDS011;44389;51.578;5.456;2023-06-26T11:26:42;9.15;;;1.85;;
58621;SDS011;44389;51.578;5.456;2023-06-26T11:29:09;6.50;;;1.70;;
58621;SDS011;44389;51.578;5.456;2023-06-26T11:31:36;9.40;;;2.00;;
58621;SDS011;44389;51.578;5.456;2023-06-26T11:34:04;9.77;;;2.10;;
58621;SDS011;44389;51.578;5.456;2023-06-26T11:36:32;9.10;;;2.28;;
58621;SDS011;44389;51.578;5.456;2023-06-26T11:39:02;9.18;;;2.10;;
58621;SDS011;44389;51.578;5.456;2023-06-26T11:41:29;12.13;;;2.17;;
58621;SDS011;44389;51.578;5.456;2023-06-26T11:43:55;8.23;;;1.65;;
58621;SDS011;44389;51.578;5.456;2023-06-26T11:46:24;10.70;;;2.20;;
58621;SDS011;44389;51.578;5.456;2023-06-26T11:48:50;8.38;;;2.17;;
58621;SDS011;44389;51.578;5.456;2023-06-26T11:51:15;11.30;;;2.25;;
58621;SDS011;44389;51.578;5.456;2023-06-26T11:53:41;10.57;;;2.13;;
58621;SDS011;44389;51.578;5.456;2023-06-26T11:56:14;8.77;;;2.22;;
58621;SDS011;44389;51.578;5.456;2023-06-26T11:58:57;8.60;;;2.00;;
58621;SDS011;44389;51.578;5.456;2023-06-26T12:01:37;11.77;;;2.45;;
58621;SDS011;44389;51.578;5.456;2023-06-26T12:04:05;11.30;;;2.20;;
58621;SDS011;44389;51.578;5.456;2023-06-26T12:06:33;8.25;;;2.13;;
58621;SDS011;44389;51.578;5.456;2023-06-26T12:09:00;13.23;;;2.10;;
58621;SDS011;44389;51.578;5.456;2023-06-26T12:11:28;9.02;;;2.28;;
58621;SDS011;44389;51.578;5.456;2023-06-26T12:13:55;8.27;;;2.28;;
58621;SDS011;44389;51.578;5.456;2023-06-26T12:16:21;10.35;;;2.75;;
58621;SDS011;44389;51.578;5.456;2023-06-26T12:18:47;13.25;;;3.10;;
58621;SDS011;44389;51.578;5.456;2023-06-26T12:24:12;10.85;;;2.53;;
58621;SDS011;44389;51.578;5.456;2023-06-26T12:26:41;9.05;;;2.20;;
58621;SDS011;44389;51.578;5.456;2023-06-26T12:29:09;9.10;;;2.38;;
58621;SDS011;44389;51.578;5.456;2023-06-26T12:31:39;9.38;;;2.28;;
58621;SDS011;44389;51.578;5.456;2023-06-26T12:34:13;10.25;;;2.08;;
58621;SDS011;44389;51.578;5.456;2023-06-26T12:36:42;12.80;;;2.45;;
58621;SDS011;44389;51.578;5.456;2023-06-26T12:39:10;8.93;;;2.08;;
58621;SDS011;44389;51.578;5.456;2023-06-26T12:41:51;9.00;;;2.17;;
58621;SDS011;44389;51.578;5.456;2023-06-26T12:44:30;5.97;;;1.83;;
58621;SDS011;44389;51.578;5.456;2023-06-26T12:46:58;8.10;;;2.22;;
58621;SDS011;44389;51.578;5.456;2023-06-26T12:49:31;9.40;;;2.65;;
58621;SDS011;44389;51.578;5.456;2023-06-26T12:52:01;13.90;;;1.93;;
58621;SDS011;44389;51.578;5.456;2023-06-26T12:54:28;7.60;;;2.17;;
58621;SDS011;44389;51.578;5.456;2023-06-26T12:56:54;15.35;;;2.70;;
58621;SDS011;44389;51.578;5.456;2023-06-26T12:59:20;7.13;;;1.85;;
58621;SDS011;44389;51.578;5.456;2023-06-26T13:01:46;11.32;;;2.03;;
58621;SDS011;44389;51.578;5.456;2023-06-26T13:04:11;8.98;;;2.38;;
58621;SDS011;44389;51.578;5.456;2023-06-26T13:06:37;12.45;;;2.00;;
58621;SDS011;44389;51.578;5.456;2023-06-26T13:09:02;11.52;;;2.08;;
58621;SDS011;44389;51.578;5.456;2023-06-26T13:11:30;16.90;;;2.38;;
58621;SDS011;44389;51.578;5.456;2023-06-26T13:13:56;10.55;;;2.38;;
58621;SDS011;44389;51.578;5.456;2023-06-26T13:16:22;6.25;;;2.05;;
58621;SDS011;44389;51.578;5.456;2023-06-26T13:18:47;6.97;;;1.80;;
58621;SDS011;44389;51.578;5.456;2023-06-26T13:21:13;15.15;;;2.33;;
58621;SDS011;44389;51.578;5.456;2023-06-26T13:23:39;13.10;;;2.33;;
58621;SDS011;44389;51.578;5.456;2023-06-26T13:26:04;9.63;;;2.28;;
58621;SDS011;44389;51.578;5.456;2023-06-26T13:28:30;15.05;;;2.75;;
58621;SDS011;44389;51.578;5.456;2023-06-26T13:30:55;12.43;;;2.75;;
58621;SDS011;44389;51.578;5.456;2023-06-26T13:33:20;5.18;;;1.95;;
58621;SDS011;44389;51.578;5.456;2023-06-26T13:35:46;11.05;;;2.33;;
58621;SDS011;44389;51.578;5.456;2023-06-26T13:38:11;12.15;;;2.88;;
58621;SDS011;44389;51.578;5.456;2023-06-26T13:40:37;10.90;;;2.80;;
58621;SDS011;44389;51.578;5.456;2023-06-26T13:43:02;10.07;;;2.20;;
58621;SDS011;44389;51.578;5.456;2023-06-26T13:45:28;10.03;;;2.60;;
58621;SDS011;44389;51.578;5.456;2023-06-26T13:47:53;11.43;;;2.30;;
58621;SDS011;44389;51.578;5.456;2023-06-26T13:50:19;11.60;;;2.38;;
58621;SDS011;44389;51.578;5.456;2023-06-26T13:52:44;11.15;;;2.20;;
58621;SDS011;44389;51.578;5.456;2023-06-26T13:55:10;12.67;;;2.47;;
58621;SDS011;44389;51.578;5.456;2023-06-26T13:57:35;11.30;;;2.30;;
58621;SDS011;44389;51.578;5.456;2023-06-26T14:00:07;9.10;;;2.20;;
58621;SDS011;44389;51.578;5.456;2023-06-26T14:02:34;10.05;;;2.35;;
58621;SDS011;44389;51.578;5.456;2023-06-26T14:04:59;7.40;;;2.50;;
58621;SDS011;44389;51.578;5.456;2023-06-26T14:07:24;12.52;;;2.55;;
58621;SDS011;44389;51.578;5.456;2023-06-26T14:09:50;9.57;;;2.58;;
58621;SDS011;44389;51.578;5.456;2023-06-26T14:12:15;11.82;;;2.50;;
58621;SDS011;44389;51.578;5.456;2023-06-26T14:14:40;13.05;;;2.80;;
58621;SDS011;44389;51.578;5.456;2023-06-26T14:17:07;10.23;;;2.67;;
58621;SDS011;44389;51.578;5.456;2023-06-26T14:21:59;15.97;;;2.53;;
58621;SDS011;44389;51.578;5.456;2023-06-26T14:24:24;8.38;;;2.13;;
58621;SDS011;44389;51.578;5.456;2023-06-26T14:26:50;11.30;;;2.53;;
58621;SDS011;44389;51.578;5.456;2023-06-26T14:29:15;11.95;;;2.88;;
58621;SDS011;44389;51.578;5.456;2023-06-26T14:31:42;9.93;;;2.05;;
58621;SDS011;44389;51.578;5.456;2023-06-26T14:34:08;9.07;;;2.47;;
58621;SDS011;44389;51.578;5.456;2023-06-26T14:36:33;10.07;;;2.60;;
58621;SDS011;44389;51.578;5.456;2023-06-26T14:39:00;17.77;;;2.83;;
58621;SDS011;44389;51.578;5.456;2023-06-26T14:41:25;8.85;;;2.05;;
58621;SDS011;44389;51.578;5.456;2023-06-26T14:43:50;9.32;;;2.55;;
58621;SDS011;44389;51.578;5.456;2023-06-26T14:46:16;10.40;;;2.65;;
58621;SDS011;44389;51.578;5.456;2023-06-26T14:48:41;6.88;;;2.40;;
58621;SDS011;44389;51.578;5.456;2023-06-26T14:51:06;10.27;;;2.28;;
58621;SDS011;44389;51.578;5.456;2023-06-26T14:53:32;11.05;;;2.45;;
58621;SDS011;44389;51.578;5.456;2023-06-26T14:55:57;9.68;;;2.28;;
58621;SDS011;44389;51.578;5.456;2023-06-26T14:58:22;11.13;;;2.65;;